Kumasi, Ghana
Current Conditions -  °F | °C
As of 11:00 AM on Saturday 25 Oct 2014 (Local Time) from DIAP Reporting Station
Thunderstorm Thunderstorm  
Wind Chill: 77°   Ceiling: 4000
Heat Index: 78°   Visibility: 5mi
Dew Point: 75°   Wind: 12mph
Humidity: 94%   Direction: 200°SSW
Pressure: 29.88"   Gusts: NA
Location:  6.69°N, 1.63°W
Report Text: DIAP 251100Z 20010KT 8000 TS SCT011 FEW020CB BKN040 25/24 Q1012 TEMPO 3000 TSRA BKN011 FEW020CB OVC040
Loading
Personal Weather Stations






























Interactive Weather Map
Tropical Storm Tracking
New forecast layout! Learn more

10-Day Weather Forecast

Advertisements
Track Severe Weather on mobile